Hot Springs, Arkansas
Current Conditions -  °F | °C
As of 1:07 PM on Friday 21 Nov 2014 (Local Time) from KHOT Reporting Station
Haze Haze  
Wind Chill: 50°   Ceiling: 400
Heat Index: 50°   Visibility: 4mi
Dew Point: 48°   Wind: 6mph
Humidity: 93%   Direction: 90°E
Pressure: 30.23"   Gusts: NA
Location:  34.51°N, 93.05°W
Report Text: KHOT 211907Z AUTO 09005KT 4SM BR OVC004 10/09 A3023 RMK AO2 T01000089
Loading
Personal Weather Stations






























Interactive Weather Map New forecast layout! Learn more

10-Day Weather Forecast

Advertisements
Track Severe Weather on mobile